Time;durP1;ratioP1;P1;durP2;ratioP2;P2;SDS_P1;SDS_P2;PMS_P1;PMS_P2;Temp;Humidity;BMP_temperature;BMP_pressure;BME280_temperature;BME280_humidity;BME280_pressure;Samples;Min_cycle;Max_cycle;Signal;HPM_P1;HPM_P2
2022/01/14 00:02:13;;;;;;;7.97;3.80;;;;;;;6.26;81.23;102954.38;5039494;28;20020;-47
2022/01/14 00:04:39;;;;;;;8.25;2.53;;;;;;;6.39;81.67;102959.19;5036555;28;20033;-46
2022/01/14 00:07:05;;;;;;;11.68;3.13;;;;;;;6.35;81.25;102942.72;5037464;28;20321;-46
2022/01/14 00:09:31;;;;;;;9.85;2.67;;;;;;;6.35;81.25;102940.91;5036509;28;20494;-47
2022/01/14 00:11:59;;;;;;;9.18;2.42;;;;;;;6.27;81.48;102943.53;5052519;28;20470;-46
2022/01/14 00:14:38;;;;;;;6.90;2.63;;;;;;;6.20;81.19;102949.72;5037385;28;20025;-47
2022/01/14 00:17:08;;;;;;;14.15;2.83;;;;;;;6.32;81.11;102949.22;5038157;28;20033;-47
2022/01/14 00:19:34;;;;;;;8.52;2.88;;;;;;;6.28;81.07;102949.69;5037253;28;20037;-46
2022/01/14 00:22:06;;;;;;;8.38;2.42;;;;;;;6.32;81.02;102951.88;5035891;28;20025;-46
2022/01/14 00:31:41;;;;;;;14.10;2.95;;;;;;;6.32;81.23;102945.72;5036430;28;20036;-47
2022/01/14 00:33:05;;;;;;;10.90;3.00;;;;;;;6.32;81.45;102933.25;5036737;28;20052;-47
2022/01/14 00:35:31;;;;;;;7.63;2.40;;;;;;;6.32;80.87;102935.09;5038061;28;20086;-48
2022/01/14 00:37:57;;;;;;;8.63;2.45;;;;;;;6.33;80.97;102932.25;5035676;28;20033;-46
2022/01/14 00:40:22;;;;;;;7.95;1.85;;;;;;;6.28;81.37;102923.94;5035603;28;20032;-46
2022/01/14 00:42:49;;;;;;;11.27;2.88;;;;;;;6.32;80.96;102919.94;5036393;28;20642;-46
2022/01/14 00:45:15;;;;;;;5.55;2.63;;;;;;;6.28;81.19;102921.28;5036394;28;20055;-47
2022/01/14 00:47:40;;;;;;;13.75;3.05;;;;;;;6.31;81.51;102917.44;5037790;28;20112;-47
2022/01/14 00:50:11;;;;;;;10.07;2.90;;;;;;;6.33;81.15;102918.09;5034045;28;20929;-46
2022/01/14 00:52:39;;;;;;;12.38;2.40;;;;;;;6.33;80.79;102913.63;5036604;28;20076;-46
2022/01/14 00:55:07;;;;;;;11.13;3.22;;;;;;;6.35;80.75;102916.94;5034630;28;20083;-46
2022/01/14 01:00:18;;;;;;;9.70;1.88;;;;;;;6.29;80.99;102922.94;5036979;28;20040;-46
2022/01/14 01:02:43;;;;;;;9.55;2.65;;;;;;;6.29;81.04;102925.59;5032294;28;20025;-47
2022/01/14 01:05:12;;;;;;;12.98;3.13;;;;;;;6.33;80.83;102921.59;5036462;28;20502;-46
2022/01/14 01:07:40;;;;;;;11.40;4.05;;;;;;;6.34;80.67;102923.25;5035355;28;20067;-48
2022/01/14 01:10:06;;;;;;;11.98;3.22;;;;;;;6.32;81.17;102927.94;5035906;28;20029;-46
2022/01/14 01:12:46;;;;;;;9.18;2.72;;;;;;;6.31;81.22;102926.25;5035193;28;20423;-47
2022/01/14 01:15:15;;;;;;;11.90;2.72;;;;;;;6.38;80.78;102921.09;5034185;28;20518;-46
2022/01/14 01:17:40;;;;;;;13.10;2.17;;;;;;;6.36;80.50;102933.75;5035723;28;20029;-46
2022/01/14 01:20:17;;;;;;;9.98;2.47;;;;;;;6.29;80.82;102924.78;5034679;28;20094;-46
2022/01/14 01:22:45;;;;;;;6.20;2.50;;;;;;;6.32;80.70;102927.09;5035415;28;20025;-47
2022/01/14 01:25:13;;;;;;;9.77;2.47;;;;;;;6.34;80.52;102923.25;5034896;28;20042;-47
2022/01/14 01:27:41;;;;;;;8.10;2.42;;;;;;;6.37;80.69;102911.44;5034624;28;20039;-47
2022/01/14 01:30:15;;;;;;;8.05;2.40;;;;;;;6.32;80.88;102911.13;5035899;28;20032;-46
2022/01/14 01:32:41;;;;;;;6.03;2.50;;;;;;;6.27;81.25;102895.63;5035463;28;20033;-46
2022/01/14 01:35:07;;;;;;;7.82;2.70;;;;;;;6.31;81.18;102885.50;5035578;28;20122;-49
2022/01/14 01:37:32;;;;;;;8.32;2.25;;;;;;;6.28;81.16;102878.69;5034119;28;20485;-47
2022/01/14 01:39:58;;;;;;;9.35;3.38;;;;;;;6.31;81.49;102872.19;5034906;28;20175;-45
2022/01/14 01:42:28;;;;;;;11.15;3.03;;;;;;;6.29;81.63;102880.34;5034887;28;20120;-46
2022/01/14 01:44:54;;;;;;;7.97;2.38;;;;;;;6.25;81.59;102876.34;5035702;28;20017;-46
2022/01/14 01:47:22;;;;;;;10.95;2.33;;;;;;;6.29;81.64;102875.03;5035380;28;20044;-46
2022/01/14 01:49:47;;;;;;;10.65;2.70;;;;;;;6.28;81.75;102878.69;5034976;28;20020;-47
2022/01/14 01:52:13;;;;;;;13.40;3.45;;;;;;;6.30;81.77;102875.84;5037109;28;20229;-46
2022/01/14 01:54:38;;;;;;;10.15;2.58;;;;;;;6.32;82.19;102863.19;5032973;28;20108;-46
2022/01/14 01:57:04;;;;;;;11.30;2.42;;;;;;;6.31;82.18;102862.38;5035009;28;20488;-47
2022/01/14 01:59:30;;;;;;;6.95;2.08;;;;;;;6.33;81.81;102854.22;5037130;28;20120;-48
2022/01/14 02:01:59;;;;;;;11.43;3.03;;;;;;;6.32;82.19;102852.56;5034007;28;20104;-48
2022/01/14 02:04:25;;;;;;;8.68;2.75;;;;;;;6.32;82.04;102847.22;5035130;28;20060;-46
2022/01/14 02:06:56;;;;;;;5.50;1.98;;;;;;;6.32;82.20;102857.88;5033193;28;20108;-46
2022/01/14 02:09:23;;;;;;;7.78;2.60;;;;;;;6.30;82.76;102847.41;5031067;28;20031;-47
2022/01/14 02:11:49;;;;;;;9.65;2.45;;;;;;;6.37;82.21;102850.22;5033314;28;20450;-47
2022/01/14 02:14:52;;;;;;;12.25;3.55;;;;;;;6.32;82.72;102848.06;5034745;28;20028;-47
2022/01/14 02:17:31;;;;;;;12.02;3.53;;;;;;;6.33;82.63;102844.41;5035121;28;20082;-48
2022/01/14 02:22:56;;;;;;;12.25;3.28;;;;;;;6.38;82.58;102835.06;5034260;28;20669;-48
2022/01/14 02:25:30;;;;;;;13.00;2.90;;;;;;;6.29;82.94;102829.75;5035716;28;20021;-46
2022/01/14 02:28:02;;;;;;;9.68;2.47;;;;;;;6.29;83.33;102818.28;5034394;28;20032;-47
2022/01/14 02:30:30;;;;;;;7.97;2.30;;;;;;;6.32;83.02;102810.78;5035672;28;20028;-46
2022/01/14 02:32:57;;;;;;;8.55;2.53;;;;;;;6.41;83.16;102803.59;5035742;28;20048;-49
2022/01/14 02:35:23;;;;;;;9.48;2.83;;;;;;;6.32;83.32;102789.47;5034147;28;20030;-47
2022/01/14 02:37:48;;;;;;;9.45;2.45;;;;;;;6.35;83.14;102778.50;5033490;28;20044;-47
2022/01/14 02:40:15;;;;;;;9.63;2.45;;;;;;;6.42;82.94;102783.13;5036626;28;20552;-49
2022/01/14 02:42:40;;;;;;;10.30;2.40;;;;;;;6.39;82.86;102763.00;5032827;28;20157;-46
2022/01/14 02:45:10;;;;;;;9.65;2.30;;;;;;;6.43;82.83;102768.81;5027867;28;20056;-47
2022/01/14 02:47:35;;;;;;;7.72;2.75;;;;;;;6.44;83.44;102765.97;5030695;28;20017;-46
2022/01/14 02:50:01;;;;;;;8.07;2.40;;;;;;;6.46;83.04;102758.63;5032809;28;20041;-47
2022/01/14 02:52:41;;;;;;;11.27;2.38;;;;;;;6.39;83.39;102748.84;5032122;28;20047;-46
2022/01/14 02:55:20;;;;;;;6.85;3.03;;;;;;;6.41;83.33;102752.16;5034053;28;20252;-46
2022/01/14 02:57:48;;;;;;;7.78;2.40;;;;;;;6.44;83.34;102749.16;5035829;28;20056;-48
2022/01/14 03:00:16;;;;;;;5.18;2.00;;;;;;;6.42;83.33;102752.00;5032326;28;20971;-47
2022/01/14 03:02:44;;;;;;;7.78;2.13;;;;;;;6.50;83.35;102732.50;5035771;28;20025;-46
2022/01/14 03:05:11;;;;;;;12.82;2.47;;;;;;;6.46;83.29;102734.66;5037645;28;20028;-46
2022/01/14 03:07:37;;;;;;;10.27;2.58;;;;;;;6.42;83.92;102743.19;5039673;28;20099;-47
2022/01/14 03:10:04;;;;;;;7.72;1.92;;;;;;;6.48;83.88;102740.69;5034618;28;20032;-48
2022/01/14 03:12:30;;;;;;;8.63;2.95;;;;;;;6.46;84.10;102750.66;5041166;28;20112;-47
2022/01/14 03:14:55;;;;;;;10.07;2.20;;;;;;;6.50;83.97;102740.50;5038272;28;20136;-47
2022/01/14 03:17:21;;;;;;;5.97;2.00;;;;;;;6.48;84.19;102745.19;5036704;28;20087;-47
2022/01/14 03:19:47;;;;;;;5.47;2.55;;;;;;;6.48;84.03;102740.69;5040573;28;20056;-48
2022/01/14 03:22:24;;;;;;;6.78;2.20;;;;;;;6.50;84.03;102735.19;5037635;28;20032;-46
2022/01/14 03:27:15;;;;;;;6.57;2.05;;;;;;;6.46;84.70;102736.50;5038424;28;21313;-46
2022/01/14 03:29:41;;;;;;;3.80;1.60;;;;;;;6.46;84.83;102739.16;5041164;28;20016;-46
2022/01/14 03:32:07;;;;;;;7.40;1.67;;;;;;;6.50;84.62;102743.16;5037723;28;20033;-46
2022/01/14 03:34:33;;;;;;;6.60;1.80;;;;;;;6.53;84.57;102746.31;5040887;28;20064;-46
2022/01/14 03:36:58;;;;;;;7.60;1.77;;;;;;;6.52;84.79;102735.84;5035544;28;20639;-46
2022/01/14 03:39:24;;;;;;;9.10;2.25;;;;;;;6.47;84.98;102733.69;5035983;28;20194;-46
2022/01/14 03:41:50;;;;;;;9.52;1.75;;;;;;;6.45;85.53;102743.66;5039467;28;20029;-48
2022/01/14 03:44:16;;;;;;;2.88;1.40;;;;;;;6.42;85.87;102735.19;5036360;28;20119;-46
2022/01/14 03:46:42;;;;;;;6.03;1.92;;;;;;;6.54;85.29;102731.16;5041037;28;20044;-46
2022/01/14 03:49:08;;;;;;;3.22;1.17;;;;;;;6.52;85.57;102728.69;5038100;28;20032;-46
2022/01/14 03:51:33;;;;;;;3.15;1.55;;;;;;;6.53;85.51;102711.69;5039485;28;20052;-46
2022/01/14 03:53:59;;;;;;;8.57;1.60;;;;;;;6.54;85.47;102723.16;5035844;28;20111;-47
2022/01/14 03:56:25;;;;;;;5.43;1.85;;;;;;;6.52;85.41;102709.19;5038675;28;20025;-48
2022/01/14 03:58:52;;;;;;;5.30;2.03;;;;;;;6.43;85.92;102727.03;5038593;28;20360;-46
2022/01/14 04:01:19;;;;;;;4.43;2.08;;;;;;;6.47;86.20;102708.91;5037584;28;20539;-47
2022/01/14 04:03:46;;;;;;;9.18;1.70;;;;;;;6.48;85.97;102707.91;5040246;28;20271;-46
2022/01/14 04:06:12;;;;;;;5.00;1.70;;;;;;;6.41;86.42;102691.75;5037335;28;20095;-46
2022/01/14 04:08:38;;;;;;;3.85;1.88;;;;;;;6.49;86.06;102672.28;5036784;28;20368;-46
2022/01/14 04:11:05;;;;;;;6.40;1.50;;;;;;;6.54;85.69;102667.25;5037248;28;20044;-46
2022/01/14 04:13:48;;;;;;;4.07;1.77;;;;;;;6.43;86.50;102660.47;5037361;28;20183;-46
2022/01/14 04:16:15;;;;;;;6.82;1.85;;;;;;;6.44;86.68;102656.78;5035808;28;20056;-46
2022/01/14 04:18:41;;;;;;;4.55;1.40;;;;;;;6.36;86.71;102651.53;5037640;28;20032;-48
2022/01/14 04:21:07;;;;;;;4.03;1.60;;;;;;;6.38;87.20;102652.16;5037525;28;20420;-46
2022/01/14 04:23:32;;;;;;;4.07;2.13;;;;;;;6.42;87.23;102666.78;5037015;28;20069;-47
2022/01/14 04:25:58;;;;;;;5.25;1.60;;;;;;;6.41;87.31;102674.97;5033973;28;20086;-46
2022/01/14 04:28:34;;;;;;;3.70;1.42;;;;;;;6.50;86.90;102661.44;5037433;28;20108;-47
2022/01/14 04:30:59;;;;;;;5.88;1.67;;;;;;;6.48;87.31;102652.81;5036966;28;20418;-48
2022/01/14 04:33:27;;;;;;;5.97;1.65;;;;;;;6.50;87.31;102634.00;5038769;28;20226;-47
2022/01/14 04:35:55;;;;;;;9.25;1.80;;;;;;;6.54;87.19;102638.78;5039642;28;20024;-47
2022/01/14 04:38:22;;;;;;;6.05;1.80;;;;;;;6.47;87.39;102634.34;5038597;28;20025;-46
2022/01/14 04:40:48;;;;;;;4.75;1.92;;;;;;;6.49;87.42;102640.31;5038793;28;20048;-47
2022/01/14 04:43:16;;;;;;;4.03;1.38;;;;;;;6.48;87.44;102649.31;5034107;28;20075;-48
2022/01/14 04:45:55;;;;;;;6.15;1.50;;;;;;;6.41;88.31;102651.81;5039492;28;20055;-46
2022/01/14 04:48:21;;;;;;;5.63;1.80;;;;;;;6.45;87.95;102661.13;5037654;28;20124;-46
2022/01/14 04:50:47;;;;;;;7.18;1.70;;;;;;;6.50;87.57;102658.78;5033158;28;20032;-46
2022/01/14 04:53:13;;;;;;;3.05;1.25;;;;;;;6.53;87.65;102649.59;5036029;28;20477;-46
2022/01/14 04:55:39;;;;;;;5.70;1.38;;;;;;;6.53;87.10;102660.25;5040305;28;20472;-46
2022/01/14 04:58:05;;;;;;;5.70;1.90;;;;;;;6.61;87.41;102668.19;5034654;28;20098;-48
2022/01/14 05:00:31;;;;;;;4.32;1.60;;;;;;;6.52;87.89;102674.59;5038860;28;20032;-46
2022/01/14 05:02:56;;;;;;;6.40;1.92;;;;;;;6.55;87.72;102683.03;5037210;28;20093;-48
2022/01/14 05:05:25;;;;;;;4.55;1.75;;;;;;;6.53;87.39;102674.41;5037044;28;20048;-46
2022/01/14 05:07:51;;;;;;;4.82;1.50;;;;;;;6.52;87.90;102674.59;5036296;28;20055;-46
2022/01/14 05:12:46;;;;;;;8.00;2.00;;;;;;;6.48;88.11;102665.28;5038712;28;20059;-46
2022/01/14 05:15:14;;;;;;;6.82;1.92;;;;;;;6.51;87.56;102663.09;5037291;28;20112;-46
2022/01/14 05:17:40;;;;;;;5.45;1.88;;;;;;;6.47;87.97;102663.63;5041751;28;20031;-46
2022/01/14 05:20:06;;;;;;;5.20;1.88;;;;;;;6.51;88.28;102656.94;5034705;28;20398;-47
2022/01/14 05:22:31;;;;;;;4.90;2.03;;;;;;;6.55;87.93;102651.09;5039503;28;20025;-48
2022/01/14 05:24:57;;;;;;;3.70;2.13;;;;;;;6.54;88.20;102644.09;5037448;28;20028;-49
2022/01/14 05:27:23;;;;;;;7.82;2.28;;;;;;;6.48;88.22;102650.13;5034599;28;20269;-47
2022/01/14 05:29:48;;;;;;;6.05;2.28;;;;;;;6.55;87.82;102651.09;5038286;28;20028;-46
2022/01/14 05:32:15;;;;;;;8.23;2.20;;;;;;;6.42;88.31;102656.13;5036238;28;20044;-46
2022/01/14 05:34:43;;;;;;;7.07;2.60;;;;;;;6.44;88.54;102654.13;5037277;28;20376;-49
2022/01/14 05:37:09;;;;;;;9.27;3.72;;;;;;;6.44;88.85;102650.63;5034783;28;20064;-46
2022/01/14 05:39:35;;;;;;;8.55;3.22;;;;;;;6.47;88.84;102648.47;5038360;28;20032;-47
2022/01/14 05:42:03;;;;;;;6.70;2.80;;;;;;;6.44;88.70;102640.00;5034478;28;20058;-48
2022/01/14 05:44:28;;;;;;;6.72;2.85;;;;;;;6.44;88.58;102632.00;5036809;28;20207;-47
2022/01/14 05:46:56;;;;;;;6.68;2.75;;;;;;;6.45;88.59;102649.63;5033971;28;20029;-46
2022/01/14 05:49:22;;;;;;;11.55;2.90;;;;;;;6.42;88.88;102652.66;5037043;28;20226;-46
2022/01/14 05:51:48;;;;;;;7.50;3.22;;;;;;;6.44;89.03;102645.31;5035941;28;20090;-47
2022/01/14 05:54:15;;;;;;;6.10;3.20;;;;;;;6.45;88.91;102639.81;5034293;28;20182;-47
2022/01/14 05:56:41;;;;;;;8.02;3.05;;;;;;;6.41;88.87;102629.69;5030238;28;20094;-46
2022/01/14 05:59:06;;;;;;;7.15;3.35;;;;;;;6.43;88.96;102625.84;5035047;28;20036;-47
2022/01/14 06:01:32;;;;;;;6.22;3.22;;;;;;;6.42;89.14;102632.19;5036186;28;20040;-46
2022/01/14 06:03:58;;;;;;;7.47;3.17;;;;;;;6.43;88.88;102619.69;5031674;28;20033;-47
2022/01/14 06:06:24;;;;;;;10.18;3.25;;;;;;;6.38;89.12;102632.72;5033590;28;20533;-46
2022/01/14 06:08:50;;;;;;;7.35;3.88;;;;;;;6.45;89.34;102628.34;5034202;28;20021;-47
2022/01/14 06:11:16;;;;;;;7.43;3.45;;;;;;;6.45;89.00;102636.31;5030806;28;20087;-46
2022/01/14 06:13:41;;;;;;;10.90;3.88;;;;;;;6.42;89.58;102620.69;5034668;28;20360;-48
2022/01/14 06:16:07;;;;;;;7.30;3.95;;;;;;;6.45;89.41;102638.97;5033581;28;20037;-46
2022/01/14 06:18:32;;;;;;;9.40;4.15;;;;;;;6.47;89.16;102634.34;5040748;28;20024;-46
2022/01/14 06:20:58;;;;;;;8.38;4.03;;;;;;;6.41;89.41;102627.84;5035342;28;20060;-48
2022/01/14 06:23:23;;;;;;;11.45;3.97;;;;;;;6.45;89.25;102638.97;5035217;28;20033;-47
2022/01/14 06:25:49;;;;;;;10.13;4.85;;;;;;;6.41;89.09;102625.19;5034536;28;20406;-47
2022/01/14 06:28:14;;;;;;;9.25;4.68;;;;;;;6.49;88.96;102625.16;5034477;28;20340;-46
2022/01/14 06:30:40;;;;;;;9.15;4.22;;;;;;;6.50;88.63;102616.16;5036387;28;20025;-46
2022/01/14 06:33:05;;;;;;;9.10;4.72;;;;;;;6.54;88.49;102620.13;5031954;28;20481;-48
2022/01/14 06:35:31;;;;;;;7.38;4.45;;;;;;;6.48;88.90;102625.34;5035986;28;20021;-46
2022/01/14 06:37:57;;;;;;;7.57;4.40;;;;;;;6.48;88.55;102628.00;5031211;28;20554;-50
2022/01/14 06:40:23;;;;;;;8.05;4.25;;;;;;;6.49;88.94;102627.00;5038435;28;20032;-47
2022/01/14 06:42:50;;;;;;;9.00;4.45;;;;;;;6.51;88.49;102623.16;5042292;28;20033;-47
2022/01/14 06:45:16;;;;;;;6.50;4.00;;;;;;;6.46;89.09;102622.00;5041234;28;20025;-49
2022/01/14 06:47:41;;;;;;;10.80;3.92;;;;;;;6.48;89.13;102617.34;5044163;28;20446;-47
2022/01/14 06:50:07;;;;;;;7.15;4.25;;;;;;;6.53;88.83;102612.31;5042296;28;20134;-46
2022/01/14 06:52:33;;;;;;;10.00;4.07;;;;;;;6.49;88.74;102603.88;5042700;28;20029;-46
2022/01/14 06:54:58;;;;;;;7.43;4.80;;;;;;;6.48;89.08;102599.53;5040145;28;20040;-46
2022/01/14 06:57:24;;;;;;;7.05;3.95;;;;;;;6.49;88.49;102600.38;5040675;28;20491;-48
2022/01/14 06:59:50;;;;;;;7.35;4.47;;;;;;;6.45;88.88;102591.06;5039194;28;20025;-46
2022/01/14 07:02:16;;;;;;;8.07;4.43;;;;;;;6.47;88.65;102586.41;5041515;28;20028;-46
2022/01/14 07:04:41;;;;;;;10.68;4.68;;;;;;;6.45;89.28;102601.69;5040578;28;20032;-47
2022/01/14 07:07:07;;;;;;;8.88;4.15;;;;;;;6.48;88.86;102601.38;5040662;28;20131;-48
2022/01/14 07:09:55;;;;;;;6.93;4.70;;;;;;;6.50;88.94;102588.72;5041289;28;20029;-46
2022/01/14 07:12:18;;;;;;;10.13;4.60;;;;;;;6.48;88.78;102596.88;5041837;28;20147;-47
2022/01/14 07:14:43;;;;;;;9.93;4.30;;;;;;;6.50;88.60;102612.69;5040377;28;20021;-48
2022/01/14 07:17:08;;;;;;;10.15;4.20;;;;;;;6.52;88.91;102610.66;5043588;28;20035;-47
2022/01/14 07:19:37;;;;;;;6.88;3.85;;;;;;;6.52;88.35;102623.97;5042547;28;20025;-52
2022/01/14 07:22:03;;;;;;;10.30;4.88;;;;;;;6.47;88.59;102623.69;5039571;28;20021;-46
2022/01/14 07:24:29;;;;;;;13.25;4.93;;;;;;;6.49;88.57;102635.00;5041932;28;20025;-46
2022/01/14 07:26:54;;;;;;;10.75;4.30;;;;;;;6.50;88.66;102616.16;5041284;28;20040;-47
2022/01/14 07:29:19;;;;;;;7.93;4.50;;;;;;;6.52;88.35;102624.81;5040205;28;20108;-46
2022/01/14 07:31:45;;;;;;;10.23;4.53;;;;;;;6.51;88.54;102633.81;5037551;28;20378;-46
2022/01/14 07:34:11;;;;;;;10.73;4.63;;;;;;;6.49;88.13;102637.66;5043097;28;20047;-47
2022/01/14 07:36:36;;;;;;;12.27;5.93;;;;;;;6.49;88.72;102635.00;5041822;28;20049;-47
2022/01/14 07:39:05;;;;;;;9.82;4.82;;;;;;;6.50;88.29;102629.50;5042243;28;20033;-47
2022/01/14 07:41:32;;;;;;;11.90;4.95;;;;;;;6.51;88.15;102625.81;5042187;28;20021;-48
2022/01/14 07:43:58;;;;;;;11.88;4.78;;;;;;;6.55;87.62;102618.31;5042794;28;20411;-46
2022/01/14 07:46:23;;;;;;;10.50;4.43;;;;;;;6.55;88.00;102610.31;5040944;28;20025;-48
2022/01/14 07:48:49;;;;;;;9.52;4.30;;;;;;;6.50;87.98;102600.19;5041429;28;20031;-47
2022/01/14 07:51:14;;;;;;;11.70;4.32;;;;;;;6.56;87.70;102606.63;5041734;28;20029;-46
2022/01/14 07:53:40;;;;;;;7.43;3.95;;;;;;;6.54;87.73;102595.34;5041371;28;20439;-46
2022/01/14 07:56:07;;;;;;;11.13;4.93;;;;;;;6.53;87.86;102583.03;5043004;28;20021;-49
2022/01/14 07:58:33;;;;;;;8.30;4.45;;;;;;;6.47;87.79;102595.22;5041785;28;20068;-46
2022/01/14 08:00:59;;;;;;;9.70;4.10;;;;;;;6.51;88.06;102598.34;5039543;28;20029;-48
2022/01/14 08:03:24;;;;;;;14.63;4.80;;;;;;;6.53;87.76;102599.00;5041518;28;20502;-46
2022/01/14 08:05:51;;;;;;;8.20;3.80;;;;;;;6.49;87.62;102595.03;5038467;28;20454;-47
2022/01/14 08:08:16;;;;;;;9.80;4.38;;;;;;;6.56;87.72;102596.00;5042610;28;20031;-48
2022/01/14 08:10:42;;;;;;;7.40;4.05;;;;;;;6.52;87.79;102592.03;5041344;28;20032;-47
2022/01/14 08:13:07;;;;;;;10.77;3.75;;;;;;;6.56;87.39;102590.66;5039101;28;20036;-46
2022/01/14 08:15:33;;;;;;;7.57;4.10;;;;;;;6.58;87.54;102597.47;5039378;28;20029;-46
2022/01/14 08:18:01;;;;;;;8.00;3.40;;;;;;;6.58;87.36;102613.44;5041813;28;20423;-46
2022/01/14 08:20:27;;;;;;;8.43;3.33;;;;;;;6.52;87.77;102608.00;5039968;28;20025;-48
2022/01/14 08:22:52;;;;;;;7.00;3.95;;;;;;;6.58;87.77;102600.13;5040499;28;20048;-48
2022/01/14 08:25:18;;;;;;;4.53;3.10;;;;;;;6.54;87.77;102606.00;5041884;28;20029;-46
2022/01/14 08:27:43;;;;;;;8.50;3.35;;;;;;;6.53;87.73;102615.81;5034190;28;20028;-46
2022/01/14 08:30:09;;;;;;;8.02;3.78;;;;;;;6.55;88.21;102626.28;5041806;28;20567;-47
2022/01/14 08:32:35;;;;;;;7.93;3.72;;;;;;;6.59;87.98;102624.94;5034741;28;20079;-47
2022/01/14 08:35:00;;;;;;;11.98;3.53;;;;;;;6.59;87.86;102620.44;5040597;28;20037;-47
2022/01/14 08:37:27;;;;;;;9.38;3.30;;;;;;;6.57;88.07;102610.97;5043458;28;20029;-47
2022/01/14 08:39:52;;;;;;;6.95;3.45;;;;;;;6.62;87.63;102603.25;5039939;28;20279;-46
2022/01/14 08:42:18;;;;;;;11.63;3.17;;;;;;;6.62;87.78;102598.75;5043024;28;20448;-46
2022/01/14 08:44:44;;;;;;;5.75;3.10;;;;;;;6.58;88.13;102600.13;5040341;28;20030;-47
2022/01/14 08:47:10;;;;;;;7.80;3.00;;;;;;;6.58;88.36;102600.13;5038039;28;20060;-46
2022/01/14 08:49:37;;;;;;;5.90;2.70;;;;;;;6.65;88.09;102597.59;5040920;28;20017;-49
2022/01/14 08:52:03;;;;;;;6.55;2.90;;;;;;;6.64;88.71;102601.25;5041449;28;20677;-46
2022/01/14 08:54:29;;;;;;;7.00;3.30;;;;;;;6.70;88.47;102608.56;5042170;28;20115;-47
2022/01/14 08:56:54;;;;;;;4.90;2.42;;;;;;;6.70;88.18;102594.41;5040012;28;21466;-46
2022/01/14 08:59:20;;;;;;;7.30;3.13;;;;;;;6.72;88.34;102595.06;5042420;28;20697;-46
2022/01/14 09:01:46;;;;;;;8.50;2.75;;;;;;;6.75;88.37;102597.34;5034138;28;20023;-47
2022/01/14 09:04:11;;;;;;;7.35;2.90;;;;;;;6.72;88.41;102598.53;5037036;28;20048;-47
2022/01/14 09:06:37;;;;;;;6.35;3.10;;;;;;;6.72;88.88;102595.06;5040036;28;20645;-46
2022/01/14 09:09:03;;;;;;;9.02;2.92;;;;;;;6.77;88.69;102598.00;5038482;28;20059;-46
2022/01/14 09:11:28;;;;;;;8.02;2.83;;;;;;;6.78;88.81;102597.00;5040188;28;20025;-47
2022/01/14 09:13:54;;;;;;;7.25;2.80;;;;;;;6.80;88.63;102595.81;5037872;28;20036;-47
2022/01/14 09:16:20;;;;;;;9.98;2.88;;;;;;;6.84;88.65;102606.97;5039278;28;20115;-46
2022/01/14 09:18:49;;;;;;;6.32;2.85;;;;;;;6.79;89.05;102609.31;5036734;28;20064;-47
2022/01/14 09:21:16;;;;;;;7.95;3.20;;;;;;;6.79;89.38;102609.31;5035422;28;20020;-47
2022/01/14 09:23:43;;;;;;;5.13;3.08;;;;;;;6.83;89.38;102610.63;5038105;28;20404;-47
2022/01/14 09:26:09;;;;;;;7.15;4.13;;;;;;;6.78;89.80;102603.16;5039085;28;20029;-47
2022/01/14 09:28:35;;;;;;;9.02;2.97;;;;;;;6.80;89.84;102600.31;5039176;28;20493;-47
2022/01/14 09:31:00;;;;;;;6.55;2.78;;;;;;;6.81;89.48;102600.13;5036811;28;20033;-46
2022/01/14 09:33:26;;;;;;;5.57;2.50;;;;;;;6.81;89.59;102605.47;5040224;28;20135;-47
2022/01/14 09:35:51;;;;;;;12.18;3.05;;;;;;;6.85;89.42;102598.78;5036475;28;20383;-47
2022/01/14 09:38:17;;;;;;;6.07;3.63;;;;;;;6.87;89.77;102602.09;5040031;28;20040;-47
2022/01/14 09:40:47;;;;;;;7.45;2.88;;;;;;;6.91;89.08;102608.72;5036897;28;20080;-48
2022/01/14 09:43:14;;;;;;;4.72;2.65;;;;;;;6.90;89.40;102607.06;5040069;28;20029;-47
2022/01/14 09:45:40;;;;;;;8.82;3.55;;;;;;;6.86;89.94;102616.44;5032632;28;20028;-49
2022/01/14 09:48:06;;;;;;;8.68;2.83;;;;;;;6.85;90.60;102622.78;5038709;28;20032;-46
2022/01/14 09:50:31;;;;;;;12.52;3.55;;;;;;;6.79;91.34;102611.97;5038675;28;20033;-47
2022/01/14 09:52:57;;;;;;;8.93;2.92;;;;;;;6.88;90.86;102619.75;5037386;28;20036;-47
2022/01/14 09:55:24;;;;;;;6.32;2.67;;;;;;;6.92;90.72;102617.56;5039572;28;20029;-47
2022/01/14 09:57:53;;;;;;;10.32;2.88;;;;;;;6.92;90.75;102615.72;5036171;28;20740;-49
2022/01/14 10:00:19;;;;;;;8.73;2.70;;;;;;;6.81;92.13;102613.44;5034621;28;20479;-47
2022/01/14 10:02:45;;;;;;;7.10;2.72;;;;;;;6.85;91.87;102614.78;5037305;28;20037;-47
2022/01/14 10:05:34;;;;;;;8.38;2.65;;;;;;;6.87;92.15;102614.59;5039036;28;20231;-48
2022/01/14 10:08:18;;;;;;;8.15;3.40;;;;;;;6.89;92.52;102620.56;5037787;28;20033;-47
2022/01/14 10:10:46;;;;;;;7.20;2.85;;;;;;;6.92;92.44;102609.56;5036893;28;20026;-49
2022/01/14 10:13:24;;;;;;;6.82;2.95;;;;;;;6.89;92.68;102608.09;5039549;28;20032;-47
2022/01/14 10:16:00;;;;;;;7.63;2.72;;;;;;;6.88;93.46;102603.75;5034636;28;20033;-48
2022/01/14 10:18:26;;;;;;;6.85;2.53;;;;;;;6.88;94.21;102595.75;5025810;28;20151;-47
2022/01/14 10:20:51;;;;;;;8.02;1.90;;;;;;;6.88;93.95;102600.28;5035961;28;20021;-47
2022/01/14 10:23:37;;;;;;;5.70;2.25;;;;;;;6.92;94.08;102602.38;5039276;28;20024;-47
2022/01/14 10:26:04;;;;;;;5.25;2.78;;;;;;;6.96;94.15;102613.50;5038483;28;20076;-47
2022/01/14 10:28:30;;;;;;;7.40;3.13;;;;;;;6.95;94.88;102601.19;5035833;28;20040;-49
2022/01/14 10:30:56;;;;;;;5.47;2.47;;;;;;;6.95;94.46;102583.38;5037046;28;20037;-47
2022/01/14 10:33:27;;;;;;;5.93;2.55;;;;;;;6.99;94.43;102578.50;5040276;28;20021;-48
2022/01/14 10:35:53;;;;;;;5.05;2.20;;;;;;;7.00;94.93;102580.16;5031529;28;20380;-48
2022/01/14 10:38:21;;;;;;;4.50;2.25;;;;;;;7.00;95.89;102571.34;5039559;28;20032;-47
2022/01/14 10:40:49;;;;;;;8.32;2.22;;;;;;;7.03;95.30;102574.50;5036195;28;20038;-47
2022/01/14 10:43:17;;;;;;;3.75;2.05;;;;;;;7.08;95.26;102581.94;5031375;28;20044;-47
2022/01/14 10:45:45;;;;;;;5.40;2.22;;;;;;;7.11;95.05;102585.06;5035684;28;20450;-49
2022/01/14 10:48:16;;;;;;;3.28;1.77;;;;;;;7.11;94.91;102574.41;5038766;28;20025;-47
2022/01/14 10:50:45;;;;;;;3.42;1.67;;;;;;;7.13;94.87;102579.56;5036735;28;20036;-48
2022/01/14 10:53:13;;;;;;;3.88;1.60;;;;;;;7.14;94.38;102582.03;5039354;28;20083;-46
2022/01/14 10:55:44;;;;;;;4.32;1.42;;;;;;;7.13;93.97;102580.38;5036988;28;20021;-47
2022/01/14 10:58:17;;;;;;;11.68;2.17;;;;;;;7.13;94.26;102575.06;5038116;28;20033;-47
2022/01/14 11:00:48;;;;;;;5.07;1.88;;;;;;;7.16;94.14;102580.03;5036465;28;20473;-48
2022/01/14 11:03:15;;;;;;;5.57;1.55;;;;;;;7.19;94.37;102589.53;5036197;28;20513;-47
2022/01/14 11:05:42;;;;;;;2.40;1.55;;;;;;;7.17;93.69;102575.53;5036877;28;20029;-47
2022/01/14 11:08:08;;;;;;;5.40;1.83;;;;;;;7.24;93.23;102561.31;5038232;28;20033;-47
2022/01/14 11:10:36;;;;;;;5.60;1.65;;;;;;;7.15;93.16;102553.53;5037621;28;20112;-47
2022/01/14 11:13:06;;;;;;;4.50;1.55;;;;;;;7.22;93.32;102552.66;5036770;28;20060;-47
2022/01/14 11:15:33;;;;;;;2.53;1.52;;;;;;;7.28;93.19;102545.75;5037737;28;20025;-47
2022/01/14 11:18:02;;;;;;;4.60;1.55;;;;;;;7.24;93.24;102553.31;5037538;28;20509;-46
2022/01/14 11:20:34;;;;;;;3.90;1.27;;;;;;;7.24;93.29;102552.47;5038478;28;20528;-48
2022/01/14 11:23:16;;;;;;;2.50;1.35;;;;;;;7.31;93.20;102565.91;5037256;28;20521;-46
2022/01/14 11:25:46;;;;;;;6.35;1.35;;;;;;;7.27;93.22;102581.44;5036656;28;20379;-49
2022/01/14 11:28:16;;;;;;;4.70;1.20;;;;;;;7.28;93.05;102570.59;5039680;28;20024;-48
2022/01/14 11:30:41;;;;;;;5.07;1.35;;;;;;;7.34;92.58;102571.69;5040326;28;20556;-47
2022/01/14 11:33:09;;;;;;;2.25;0.80;;;;;;;7.31;92.85;102582.72;5041516;28;20029;-48
2022/01/14 11:35:37;;;;;;;4.78;1.30;;;;;;;7.30;92.88;102575.72;5040504;28;20192;-47
2022/01/14 11:38:23;;;;;;;4.75;1.08;;;;;;;7.26;93.25;102569.94;5040824;28;20067;-48
2022/01/14 11:40:51;;;;;;;5.13;1.10;;;;;;;7.26;93.83;102566.44;5039181;28;20029;-47
2022/01/14 11:43:43;;;;;;;3.40;1.00;;;;;;;7.19;94.04;102579.69;5040365;28;20379;-46
2022/01/14 11:46:12;;;;;;;3.42;1.50;;;;;;;7.21;94.51;102569.66;5035190;28;20211;-48
2022/01/14 11:48:52;;;;;;;3.33;1.40;;;;;;;7.29;93.55;102563.41;5040068;28;20052;-46
2022/01/14 11:51:18;;;;;;;1.60;1.15;;;;;;;7.34;93.67;102562.84;5037559;28;20024;-47